Time;durP1;ratioP1;P1;durP2;ratioP2;P2;SDS_P1;SDS_P2;PMS_P1;PMS_P2;Temp;Humidity;BMP_temperature;BMP_pressure;BME280_temperature;BME280_humidity;BME280_pressure;Samples;Min_cycle;Max_cycle;Signal;HPM_P1;HPM_P2
2021/10/11 00:00:36;;;;;;;10.93;8.02;;;12.40;1.00;;;;;;4845569;29;20070;-72
2021/10/11 00:03:01;;;;;;;9.45;7.78;;;12.30;1.00;;;;;;4845864;29;20062;-72
2021/10/11 00:05:27;;;;;;;8.55;7.40;;;12.40;1.00;;;;;;4845655;29;20046;-72
2021/10/11 00:07:53;;;;;;;8.98;8.07;;;12.40;1.00;;;;;;4845938;29;20423;-72
2021/10/11 00:10:19;;;;;;;9.63;8.05;;;12.40;1.00;;;;;;4845505;29;20041;-72
2021/10/11 00:12:49;;;;;;;9.48;8.38;;;12.50;1.00;;;;;;4845455;29;20041;-72
2021/10/11 00:15:17;;;;;;;10.05;7.72;;;12.50;1.00;;;;;;4845591;29;20078;-72
2021/10/11 00:17:43;;;;;;;9.75;7.57;;;12.50;1.00;;;;;;4845067;29;20102;-72
2021/10/11 00:20:11;;;;;;;10.05;7.95;;;12.60;1.00;;;;;;4845348;29;20050;-72
2021/10/11 00:22:37;;;;;;;9.98;8.48;;;12.60;1.00;;;;;;4845373;29;20129;-72
2021/10/11 00:25:04;;;;;;;8.60;7.25;;;12.70;1.00;;;;;;4845592;29;20034;-72
2021/10/11 00:27:31;;;;;;;8.30;7.47;;;12.60;1.00;;;;;;4845127;29;20045;-72
2021/10/11 00:29:58;;;;;;;8.30;7.18;;;12.60;1.00;;;;;;4844989;29;20054;-72
2021/10/11 00:32:24;;;;;;;10.38;8.35;;;12.50;1.00;;;;;;4845051;29;20050;-72
2021/10/11 00:34:50;;;;;;;11.27;7.70;;;12.50;1.00;;;;;;4844899;29;20134;-72
2021/10/11 00:37:16;;;;;;;9.02;7.78;;;12.60;1.00;;;;;;4845183;29;20363;-72
2021/10/11 00:39:43;;;;;;;11.73;7.95;;;12.40;1.00;;;;;;4845045;29;20092;-72
2021/10/11 00:42:09;;;;;;;11.30;8.32;;;12.40;1.00;;;;;;4845171;29;20042;-72
2021/10/11 00:44:35;;;;;;;9.65;8.05;;;12.40;1.00;;;;;;4845272;29;20137;-72
2021/10/11 00:47:01;;;;;;;10.13;7.97;;;12.40;1.00;;;;;;4844780;29;20045;-72
2021/10/11 00:49:27;;;;;;;8.48;6.93;;;12.40;1.00;;;;;;4845238;29;20053;-72
2021/10/11 00:51:53;;;;;;;9.65;8.07;;;12.40;1.00;;;;;;4844560;29;20478;-72
2021/10/11 00:54:19;;;;;;;9.77;8.05;;;12.30;1.00;;;;;;4844840;29;20038;-72
2021/10/11 00:56:45;;;;;;;10.27;7.45;;;12.20;1.00;;;;;;4844774;29;20173;-72
2021/10/11 00:59:11;;;;;;;9.25;7.47;;;12.20;1.00;;;;;;4845002;29;20148;-72
2021/10/11 01:01:37;;;;;;;8.65;7.72;;;12.20;1.00;;;;;;4843841;29;20129;-72
2021/10/11 01:04:07;;;;;;;9.02;7.70;;;12.20;1.00;;;;;;4844558;29;20042;-72
2021/10/11 01:06:38;;;;;;;8.63;7.50;;;12.20;1.00;;;;;;4844318;29;20046;-72
2021/10/11 01:09:08;;;;;;;10.00;7.25;;;12.20;1.00;;;;;;4844681;29;20518;-72
2021/10/11 01:11:35;;;;;;;9.15;7.88;;;12.10;1.00;;;;;;4844221;29;20064;-72
2021/10/11 01:14:01;;;;;;;9.93;6.80;;;12.00;1.00;;;;;;4843951;29;20041;-72
2021/10/11 01:16:27;;;;;;;10.63;8.02;;;12.00;1.00;;;;;;4843756;29;20072;-72
2021/10/11 01:18:54;;;;;;;7.78;6.97;;;11.90;1.00;;;;;;4844229;29;20042;-72
2021/10/11 01:21:20;;;;;;;8.98;7.82;;;11.90;1.00;;;;;;4843845;29;20046;-72
2021/10/11 01:23:45;;;;;;;10.00;7.55;;;12.00;1.00;;;;;;4844054;29;20072;-72
2021/10/11 01:26:11;;;;;;;8.55;7.30;;;12.00;1.00;;;;;;4844210;29;20521;-72
2021/10/11 01:28:37;;;;;;;9.63;7.25;;;12.00;1.00;;;;;;4844343;29;20050;-72
2021/10/11 01:31:03;;;;;;;9.18;7.43;;;12.00;1.00;;;;;;4843548;29;20510;-72
2021/10/11 01:33:29;;;;;;;8.68;7.60;;;11.90;1.00;;;;;;4843994;29;20046;-72
2021/10/11 01:35:55;;;;;;;9.10;7.80;;;11.90;1.00;;;;;;4843944;29;20045;-72
2021/10/11 01:38:21;;;;;;;9.05;7.53;;;12.00;1.00;;;;;;4843728;29;20046;-72
2021/10/11 01:40:46;;;;;;;9.25;7.93;;;12.00;1.00;;;;;;4843804;29;20045;-72
2021/10/11 01:43:13;;;;;;;8.20;7.20;;;12.10;1.00;;;;;;4843827;29;20050;-72
2021/10/11 01:45:43;;;;;;;9.13;7.68;;;12.10;1.00;;;;;;4843678;29;20041;-72
2021/10/11 01:48:08;;;;;;;8.73;7.50;;;12.10;1.00;;;;;;4843882;29;20045;-72
2021/10/11 01:50:35;;;;;;;9.23;8.07;;;12.20;1.00;;;;;;4843475;29;20075;-72
2021/10/11 01:53:01;;;;;;;9.05;7.93;;;12.10;1.00;;;;;;4843754;29;20045;-72
2021/10/11 01:55:27;;;;;;;10.65;7.90;;;12.20;1.00;;;;;;4843951;29;20533;-72
2021/10/11 01:57:53;;;;;;;9.55;7.63;;;12.10;1.00;;;;;;4844034;29;20046;-72
2021/10/11 02:00:19;;;;;;;9.80;7.70;;;12.00;1.00;;;;;;4843605;29;20058;-72
2021/10/11 02:02:45;;;;;;;11.10;8.57;;;12.10;1.00;;;;;;4843608;29;20054;-72
2021/10/11 02:05:11;;;;;;;9.77;8.10;;;12.00;1.00;;;;;;4843908;29;20514;-72
2021/10/11 02:07:37;;;;;;;10.52;7.60;;;12.00;1.00;;;;;;4843716;29;20066;-72
2021/10/11 02:10:05;;;;;;;9.80;8.32;;;12.00;1.00;;;;;;4843601;29;20045;-72
2021/10/11 02:12:30;;;;;;;10.73;8.48;;;12.00;1.00;;;;;;4843800;29;20052;-72
2021/10/11 02:14:57;;;;;;;9.93;8.50;;;11.90;1.00;;;;;;4846772;29;20046;-72
2021/10/11 02:17:23;;;;;;;8.93;7.72;;;11.80;1.00;;;;;;4847243;29;20064;-71
2021/10/11 02:19:49;;;;;;;11.85;8.07;;;11.90;1.00;;;;;;4847424;29;20053;-71
2021/10/11 02:22:15;;;;;;;11.63;8.48;;;11.90;1.00;;;;;;4847588;29;20042;-72
2021/10/11 02:24:41;;;;;;;9.05;8.00;;;11.90;1.00;;;;;;4847492;29;20046;-72
2021/10/11 02:27:08;;;;;;;9.32;7.90;;;11.90;1.00;;;;;;4847420;29;20490;-72
2021/10/11 02:29:34;;;;;;;9.90;8.55;;;11.90;1.00;;;;;;4847266;29;20046;-72
2021/10/11 02:31:59;;;;;;;11.77;8.68;;;11.80;1.00;;;;;;4847318;29;20056;-72
2021/10/11 02:34:25;;;;;;;10.20;8.52;;;11.80;1.00;;;;;;4847293;29;20525;-72
2021/10/11 02:36:51;;;;;;;10.15;7.95;;;11.90;1.00;;;;;;4847304;29;20042;-71
2021/10/11 02:39:17;;;;;;;9.48;7.30;;;11.90;1.00;;;;;;4847484;29;20053;-72
2021/10/11 02:41:43;;;;;;;9.93;7.90;;;11.80;1.00;;;;;;4847223;29;20137;-72
2021/10/11 02:44:09;;;;;;;10.23;7.80;;;11.80;1.00;;;;;;4847631;29;20049;-72
2021/10/11 02:46:35;;;;;;;9.93;7.80;;;11.70;1.00;;;;;;4846594;29;20038;-72
2021/10/11 02:49:01;;;;;;;9.32;7.35;;;11.70;1.00;;;;;;4847335;29;20084;-72
2021/10/11 02:51:27;;;;;;;10.23;7.78;;;11.60;1.00;;;;;;4846723;29;20042;-72
2021/10/11 02:53:53;;;;;;;8.95;7.70;;;11.70;1.00;;;;;;4846944;29;20041;-72
2021/10/11 02:56:20;;;;;;;10.93;8.48;;;11.60;1.00;;;;;;4846943;29;20073;-72
2021/10/11 02:58:46;;;;;;;9.40;7.75;;;11.60;1.00;;;;;;4847604;29;20046;-72
2021/10/11 03:01:14;;;;;;;10.20;7.93;;;11.70;1.00;;;;;;4846539;29;20049;-72
2021/10/11 03:03:40;;;;;;;8.57;7.45;;;11.60;1.00;;;;;;4846629;29;20088;-72
2021/10/11 03:06:06;;;;;;;10.45;7.72;;;11.70;1.00;;;;;;4846165;29;20042;-72
2021/10/11 03:08:33;;;;;;;13.13;8.20;;;11.80;1.00;;;;;;4830627;29;20046;-72
2021/10/11 03:11:00;;;;;;;9.82;7.57;;;11.80;1.00;;;;;;4846769;29;20042;-72
2021/10/11 03:13:26;;;;;;;9.18;7.50;;;11.80;1.00;;;;;;4846000;29;20041;-72
2021/10/11 03:15:52;;;;;;;10.18;7.78;;;11.80;1.00;;;;;;4846235;29;20081;-72
2021/10/11 03:18:18;;;;;;;10.05;7.90;;;11.80;1.00;;;;;;4845952;29;20069;-71
2021/10/11 03:20:44;;;;;;;10.35;7.55;;;11.80;1.00;;;;;;4846117;29;20081;-71
2021/10/11 03:23:09;;;;;;;10.13;7.80;;;11.70;1.00;;;;;;4844943;29;20459;-72
2021/10/11 03:25:35;;;;;;;9.05;7.68;;;11.70;1.00;;;;;;4845116;29;20063;-71
2021/10/11 03:28:01;;;;;;;9.18;7.18;;;11.70;1.00;;;;;;4846397;29;20385;-71
2021/10/11 03:30:27;;;;;;;9.20;6.80;;;11.70;1.00;;;;;;4846132;29;20069;-71
2021/10/11 03:32:53;;;;;;;7.57;6.72;;;11.70;1.00;;;;;;4846020;29;20486;-71
2021/10/11 03:35:20;;;;;;;8.95;6.80;;;11.70;1.00;;;;;;4845975;29;20447;-71
2021/10/11 03:37:46;;;;;;;8.93;6.60;;;11.70;1.00;;;;;;4846523;29;20041;-71
2021/10/11 03:40:12;;;;;;;8.38;6.80;;;11.70;1.00;;;;;;4846313;29;20061;-71
2021/10/11 03:42:38;;;;;;;8.90;6.97;;;11.60;1.00;;;;;;4845810;29;20502;-71
2021/10/11 03:45:05;;;;;;;9.15;6.90;;;11.60;1.00;;;;;;4845788;29;20171;-72
2021/10/11 03:47:31;;;;;;;7.93;6.78;;;11.70;1.00;;;;;;4845678;29;20540;-72
2021/10/11 03:49:57;;;;;;;12.15;7.55;;;11.60;1.00;;;;;;4845705;29;20041;-72
2021/10/11 03:52:23;;;;;;;6.95;6.20;;;11.60;1.00;;;;;;4845658;29;20046;-72
2021/10/11 03:54:48;;;;;;;8.55;6.72;;;11.60;1.00;;;;;;4845370;29;20049;-72
2021/10/11 03:57:14;;;;;;;7.40;6.50;;;11.60;1.00;;;;;;4845315;29;20407;-72
2021/10/11 03:59:40;;;;;;;8.38;6.22;;;11.60;1.00;;;;;;4845368;29;20060;-72
2021/10/11 04:02:06;;;;;;;11.00;6.90;;;11.60;1.00;;;;;;4848230;29;20084;-71
2021/10/11 04:04:33;;;;;;;8.25;6.18;;;11.60;1.00;;;;;;4852449;29;20038;-71
2021/10/11 04:07:05;;;;;;;6.93;5.43;;;11.50;1.00;;;;;;4858250;29;20037;-71
2021/10/11 04:09:31;;;;;;;7.43;6.00;;;11.60;1.00;;;;;;4859342;29;20056;-71
2021/10/11 04:12:05;;;;;;;6.95;5.72;;;11.50;1.00;;;;;;4847255;29;20464;-71
2021/10/11 04:14:32;;;;;;;7.43;5.45;;;11.40;1.00;;;;;;4844977;29;20049;-71
2021/10/11 04:16:58;;;;;;;9.52;6.10;;;11.30;1.00;;;;;;4860361;29;20159;-71
2021/10/11 04:19:23;;;;;;;7.72;6.82;;;11.30;1.00;;;;;;4861804;29;20053;-71
2021/10/11 04:21:49;;;;;;;7.68;6.55;;;11.10;1.00;;;;;;4861914;29;20041;-70
2021/10/11 04:24:15;;;;;;;9.30;6.85;;;11.00;1.00;;;;;;4854589;29;20048;-71
2021/10/11 04:26:41;;;;;;;7.93;6.80;;;11.00;1.00;;;;;;4852719;29;20078;-71
2021/10/11 04:29:07;;;;;;;9.18;7.78;;;10.90;1.00;;;;;;4853828;29;20505;-72
2021/10/11 04:31:33;;;;;;;8.25;7.03;;;10.80;1.00;;;;;;4852785;29;20050;-73
2021/10/11 04:33:59;;;;;;;7.22;5.72;;;10.70;1.00;;;;;;4845954;29;20069;-71
2021/10/11 04:36:26;;;;;;;9.18;7.03;;;10.80;1.00;;;;;;4860415;29;20502;-70
2021/10/11 04:38:52;;;;;;;7.00;5.88;;;10.90;1.00;;;;;;4863740;29;20044;-69
2021/10/11 04:41:18;;;;;;;7.43;6.53;;;10.90;1.00;;;;;;4863382;29;20052;-69
2021/10/11 04:43:44;;;;;;;9.63;6.93;;;10.70;1.00;;;;;;4863019;29;20040;-69
2021/10/11 04:46:11;;;;;;;7.85;6.05;;;10.60;1.00;;;;;;4861694;29;20066;-70
2021/10/11 04:48:37;;;;;;;8.13;6.05;;;10.50;1.00;;;;;;4861987;29;20034;-69
2021/10/11 04:51:03;;;;;;;9.73;6.82;;;10.50;1.00;;;;;;4862158;29;20056;-69
2021/10/11 04:53:29;;;;;;;9.50;6.47;;;10.30;1.00;;;;;;4862069;29;20124;-69
2021/10/11 04:55:55;;;;;;;7.93;6.60;;;10.30;1.00;;;;;;4861801;29;20047;-69
2021/10/11 04:58:20;;;;;;;9.85;6.65;;;10.20;1.00;;;;;;4862298;29;20041;-69
2021/10/11 05:00:46;;;;;;;6.53;5.50;;;10.10;1.00;;;;;;4862585;29;20193;-69
2021/10/11 05:03:12;;;;;;;7.15;6.20;;;10.00;1.00;;;;;;4861637;29;20498;-69
2021/10/11 05:05:38;;;;;;;8.25;6.82;;;9.90;1.00;;;;;;4862822;29;20092;-69
2021/10/11 05:08:05;;;;;;;7.72;6.47;;;9.90;1.00;;;;;;4863373;29;20061;-69
2021/10/11 05:10:31;;;;;;;7.78;6.72;;;9.80;1.00;;;;;;4863002;29;20125;-69
2021/10/11 05:12:57;;;;;;;9.48;5.97;;;9.70;1.00;;;;;;4863002;29;20497;-69
2021/10/11 05:15:23;;;;;;;8.63;7.03;;;9.60;1.00;;;;;;4862907;29;20108;-69
2021/10/11 05:17:50;;;;;;;8.05;6.78;;;9.60;1.00;;;;;;4862538;29;20041;-69
2021/10/11 05:20:16;;;;;;;8.98;6.55;;;9.60;1.00;;;;;;4862196;29;20082;-69
2021/10/11 05:22:42;;;;;;;8.32;6.82;;;9.60;1.00;;;;;;4862553;29;20045;-69
2021/10/11 05:25:09;;;;;;;13.38;7.10;;;9.50;1.00;;;;;;4862572;29;20174;-69
2021/10/11 05:27:35;;;;;;;7.93;6.70;;;9.60;1.00;;;;;;4862302;29;20124;-69
2021/10/11 05:30:02;;;;;;;8.88;6.65;;;9.50;1.00;;;;;;4862167;29;20517;-69
2021/10/11 05:32:28;;;;;;;9.23;6.80;;;9.50;1.00;;;;;;4861922;29;20136;-69
2021/10/11 05:34:56;;;;;;;9.75;7.25;;;9.40;1.00;;;;;;4862143;29;20055;-69
2021/10/11 05:37:22;;;;;;;9.95;7.47;;;9.40;1.00;;;;;;4862004;29;20043;-69
2021/10/11 05:39:48;;;;;;;12.50;7.45;;;9.30;1.00;;;;;;4862273;29;20049;-69
2021/10/11 05:42:14;;;;;;;8.05;7.03;;;9.30;1.00;;;;;;4862570;29;20136;-69
2021/10/11 05:44:39;;;;;;;8.20;6.78;;;9.30;1.00;;;;;;4862300;29;20051;-69
2021/10/11 05:47:05;;;;;;;8.73;6.38;;;9.30;1.00;;;;;;4861797;29;20532;-69
2021/10/11 05:49:31;;;;;;;11.73;7.53;;;9.20;1.00;;;;;;4861133;29;20130;-69
2021/10/11 05:51:57;;;;;;;9.00;6.90;;;9.30;1.00;;;;;;4862186;29;20045;-69
2021/10/11 05:54:23;;;;;;;8.07;6.68;;;9.30;1.00;;;;;;4862197;29;20573;-69
2021/10/11 05:56:49;;;;;;;8.57;6.95;;;9.30;1.00;;;;;;4861869;29;20044;-69
2021/10/11 05:59:15;;;;;;;8.35;6.30;;;9.30;1.00;;;;;;4862400;29;20053;-69
2021/10/11 06:01:41;;;;;;;8.35;5.97;;;9.40;1.00;;;;;;4861966;29;20401;-70
2021/10/11 06:04:07;;;;;;;7.40;6.32;;;9.30;1.00;;;;;;4862475;29;20576;-69
2021/10/11 06:06:33;;;;;;;7.95;6.57;;;9.30;1.00;;;;;;4861847;29;20037;-69
2021/10/11 06:08:58;;;;;;;8.63;6.13;;;9.30;1.00;;;;;;4862139;29;20053;-69
2021/10/11 06:11:24;;;;;;;7.85;6.25;;;9.30;1.00;;;;;;4861745;29;20516;-69
2021/10/11 06:13:50;;;;;;;8.55;5.95;;;9.30;1.00;;;;;;4862071;29;20045;-69
2021/10/11 06:16:16;;;;;;;7.85;6.07;;;9.40;1.00;;;;;;4861575;29;20041;-69
2021/10/11 06:18:42;;;;;;;8.57;6.35;;;9.40;1.00;;;;;;4862566;29;20029;-69
2021/10/11 06:21:08;;;;;;;6.55;5.80;;;9.40;1.00;;;;;;4861820;29;20063;-69
2021/10/11 06:23:34;;;;;;;7.75;6.63;;;9.40;1.00;;;;;;4861676;29;20124;-69
2021/10/11 06:26:00;;;;;;;8.38;5.60;;;9.30;1.00;;;;;;4862273;29;20038;-69
2021/10/11 06:28:27;;;;;;;7.60;6.25;;;9.40;1.00;;;;;;4862212;29;20050;-69
2021/10/11 06:30:52;;;;;;;8.85;6.18;;;9.30;1.00;;;;;;4861390;29;20048;-69
2021/10/11 06:33:21;;;;;;;10.27;6.38;;;9.30;1.00;;;;;;4860276;29;20038;-69
2021/10/11 06:35:48;;;;;;;9.27;6.55;;;9.30;1.00;;;;;;4859613;29;20458;-69
2021/10/11 06:38:14;;;;;;;8.27;6.32;;;9.30;1.00;;;;;;4848107;29;20042;-69
2021/10/11 06:40:40;;;;;;;7.35;5.78;;;9.30;1.00;;;;;;4859999;29;20410;-69
2021/10/11 06:43:05;;;;;;;8.82;6.07;;;9.30;1.00;;;;;;4860608;29;20156;-69
2021/10/11 06:45:32;;;;;;;7.47;5.40;;;9.40;1.00;;;;;;4847798;29;20091;-69
2021/10/11 06:47:59;;;;;;;7.22;5.57;;;9.50;1.00;;;;;;4853716;29;20052;-69
2021/10/11 06:50:25;;;;;;;6.78;5.05;;;9.50;1.00;;;;;;4842934;29;20098;-69
2021/10/11 06:52:50;;;;;;;8.02;5.90;;;9.60;1.00;;;;;;4855537;29;20037;-69
2021/10/11 06:55:16;;;;;;;6.57;5.45;;;9.70;1.00;;;;;;4859318;29;20034;-70
2021/10/11 06:57:42;;;;;;;7.53;5.45;;;9.70;1.00;;;;;;4859330;29;20076;-69
2021/10/11 07:00:09;;;;;;;11.45;4.95;;;9.70;1.00;;;;;;4861639;29;20085;-70
2021/10/11 07:02:34;;;;;;;8.10;5.55;;;9.80;1.00;;;;;;4863494;29;20057;-70
2021/10/11 07:05:08;;;;;;;6.78;5.30;;;9.90;1.00;;;;;;4865088;29;20049;-70
2021/10/11 07:07:34;;;;;;;6.10;5.28;;;10.00;1.00;;;;;;4864606;29;20128;-70
2021/10/11 07:10:02;;;;;;;6.28;5.35;;;10.10;1.00;;;;;;4865119;29;20057;-70
2021/10/11 07:12:28;;;;;;;8.20;6.35;;;10.20;1.00;;;;;;4863403;29;20083;-69
2021/10/11 07:14:54;;;;;;;7.72;5.70;;;10.20;1.00;;;;;;4864748;29;20057;-70
2021/10/11 07:17:19;;;;;;;10.57;7.20;;;10.20;1.00;;;;;;4864923;29;20045;-70
2021/10/11 07:19:46;;;;;;;6.00;5.03;;;10.20;1.00;;;;;;4864605;29;20505;-70
2021/10/11 07:22:14;;;;;;;5.28;4.47;;;10.30;1.00;;;;;;4863939;29;20540;-71
2021/10/11 07:24:41;;;;;;;5.90;4.28;;;10.50;1.00;;;;;;4855508;29;20502;-71
2021/10/11 07:27:08;;;;;;;5.03;3.92;;;10.70;1.00;;;;;;4845468;29;20053;-71
2021/10/11 07:29:35;;;;;;;5.32;4.38;;;11.00;1.00;;;;;;4861515;29;20052;-70
2021/10/11 07:32:01;;;;;;;6.15;4.22;;;11.20;1.00;;;;;;4862279;29;20041;-70
2021/10/11 07:34:28;;;;;;;4.43;3.75;;;11.30;1.00;;;;;;4862792;29;20033;-70
2021/10/11 07:36:54;;;;;;;5.50;3.70;;;11.50;1.00;;;;;;4862856;29;20093;-70
2021/10/11 07:39:19;;;;;;;6.40;4.50;;;11.60;1.00;;;;;;4862808;29;20053;-70
2021/10/11 07:41:45;;;;;;;5.85;3.67;;;11.70;1.00;;;;;;4862554;29;20041;-70
2021/10/11 07:44:11;;;;;;;5.20;3.53;;;11.70;1.00;;;;;;4862505;29;20045;-70
2021/10/11 07:46:38;;;;;;;7.00;3.95;;;11.80;1.00;;;;;;4863562;29;20083;-69
2021/10/11 07:49:04;;;;;;;5.60;3.70;;;11.80;1.00;;;;;;4858836;29;20042;-70
2021/10/11 07:51:30;;;;;;;4.88;3.63;;;11.90;1.00;;;;;;4863077;29;20132;-70
2021/10/11 07:53:56;;;;;;;5.50;4.47;;;12.10;1.00;;;;;;4863594;29;20083;-70
2021/10/11 07:56:22;;;;;;;5.40;3.63;;;12.10;1.00;;;;;;4863753;29;20037;-70
2021/10/11 07:58:48;;;;;;;3.90;3.47;;;12.10;1.00;;;;;;4863600;29;20052;-70
2021/10/11 08:01:13;;;;;;;4.82;4.32;;;12.20;1.00;;;;;;4863577;29;20053;-69
2021/10/11 08:03:39;;;;;;;6.72;3.88;;;12.30;1.00;;;;;;4863515;29;20058;-70
2021/10/11 08:06:07;;;;;;;7.95;4.22;;;12.40;1.00;;;;;;4858771;29;20038;-71
2021/10/11 08:08:34;;;;;;;8.18;4.38;;;12.50;1.00;;;;;;4863362;29;20046;-71
2021/10/11 08:11:00;;;;;;;7.03;3.70;;;12.50;1.00;;;;;;4863277;29;20128;-71
2021/10/11 08:13:27;;;;;;;4.40;3.90;;;12.50;1.00;;;;;;4863588;29;20042;-71
2021/10/11 08:15:54;;;;;;;8.10;4.40;;;12.50;1.00;;;;;;4863442;29;20113;-69
2021/10/11 08:18:21;;;;;;;5.28;3.50;;;12.40;1.00;;;;;;4859724;29;20093;-70
2021/10/11 08:20:47;;;;;;;8.05;4.22;;;12.70;1.00;;;;;;4862764;29;20120;-70
2021/10/11 08:23:13;;;;;;;4.05;3.10;;;12.60;1.00;;;;;;4863525;29;20045;-70
2021/10/11 08:25:39;;;;;;;4.10;3.42;;;12.70;1.00;;;;;;4863205;29;20049;-70
2021/10/11 08:28:05;;;;;;;4.45;3.47;;;12.80;1.00;;;;;;4862469;29;20048;-69
2021/10/11 08:30:31;;;;;;;3.88;3.30;;;12.90;1.00;;;;;;4863571;29;20053;-69
2021/10/11 08:32:58;;;;;;;5.30;3.97;;;13.00;1.00;;;;;;4863389;29;20045;-70
2021/10/11 08:35:24;;;;;;;4.80;3.20;;;13.10;1.00;;;;;;4863646;29;20137;-69
2021/10/11 08:37:53;;;;;;;3.85;3.50;;;13.00;1.00;;;;;;4863576;29;20470;-69
2021/10/11 08:40:21;;;;;;;3.50;3.15;;;13.10;1.00;;;;;;4863139;29;20049;-69
2021/10/11 08:42:49;;;;;;;7.28;4.00;;;13.10;1.00;;;;;;4863406;29;20045;-70
2021/10/11 08:45:15;;;;;;;6.15;4.38;;;13.00;1.00;;;;;;4863291;29;20069;-70
2021/10/11 08:47:40;;;;;;;4.78;3.78;;;13.10;1.00;;;;;;4863346;29;20041;-69
2021/10/11 08:50:11;;;;;;;4.05;3.65;;;13.10;1.00;;;;;;4863122;29;20045;-70
2021/10/11 08:52:38;;;;;;;3.90;3.30;;;13.10;1.00;;;;;;4862704;29;20433;-70
2021/10/11 08:55:05;;;;;;;4.47;3.10;;;13.10;1.00;;;;;;4863297;29;20136;-70
2021/10/11 08:57:33;;;;;;;4.32;2.92;;;13.20;1.00;;;;;;4862715;29;20041;-69
2021/10/11 09:00:19;;;;;;;3.97;3.13;;;13.30;1.00;;;;;;4861771;29;20155;-69
2021/10/11 09:02:56;;;;;;;5.80;3.00;;;13.30;1.00;;;;;;4862585;29;20056;-70
2021/10/11 09:05:36;;;;;;;5.70;3.50;;;13.20;1.00;;;;;;4862680;29;20034;-69
2021/10/11 09:08:08;;;;;;;6.25;3.35;;;13.30;1.00;;;;;;4862687;29;20037;-69
2021/10/11 09:10:53;;;;;;;4.80;3.58;;;13.40;1.00;;;;;;4862463;29;20397;-69
2021/10/11 09:13:30;;;;;;;8.32;3.95;;;13.50;1.00;;;;;;4857535;29;20033;-68
2021/10/11 09:16:12;;;;;;;3.50;3.20;;;13.40;1.00;;;;;;4860021;29;20052;-68
2021/10/11 09:18:41;;;;;;;9.57;4.00;;;13.50;1.00;;;;;;4860865;29;20103;-68
2021/10/11 09:21:08;;;;;;;5.90;4.38;;;13.60;1.00;;;;;;4859646;29;20532;-68
2021/10/11 09:23:35;;;;;;;6.43;4.20;;;13.60;1.00;;;;;;4859763;29;20075;-68
2021/10/11 09:26:14;;;;;;;5.28;4.57;;;13.70;1.00;;;;;;4859517;29;20484;-68
2021/10/11 09:28:53;;;;;;;5.57;5.00;;;13.60;1.00;;;;;;4860520;29;20117;-69
2021/10/11 09:31:22;;;;;;;6.65;5.10;;;13.60;1.00;;;;;;4862229;29;20136;-69
2021/10/11 09:33:58;;;;;;;5.18;4.60;;;13.70;1.00;;;;;;4862112;29;20041;-68
2021/10/11 09:36:25;;;;;;;6.13;5.22;;;13.70;1.00;;;;;;4862107;29;20075;-69
2021/10/11 09:39:00;;;;;;;6.13;4.70;;;13.60;1.00;;;;;;4862054;29;20582;-70
2021/10/11 09:41:26;;;;;;;5.85;4.32;;;13.60;1.00;;;;;;4862057;29;20109;-69
2021/10/11 09:43:52;;;;;;;5.30;4.70;;;13.80;1.00;;;;;;4862812;29;20069;-69
2021/10/11 09:46:21;;;;;;;5.50;4.47;;;13.70;1.00;;;;;;4862069;29;20073;-69
2021/10/11 09:48:58;;;;;;;8.00;5.03;;;13.80;1.00;;;;;;4861910;29;20033;-69
2021/10/11 09:51:24;;;;;;;6.13;4.55;;;13.80;1.00;;;;;;4861815;29;20054;-69
2021/10/11 09:53:54;;;;;;;6.78;4.97;;;13.80;1.00;;;;;;4861753;29;20058;-69
2021/10/11 09:56:25;;;;;;;6.88;4.60;;;13.90;1.00;;;;;;4862154;29;20049;-69
2021/10/11 09:58:53;;;;;;;7.47;5.05;;;13.90;1.00;;;;;;4862143;29;20068;-69
2021/10/11 10:01:20;;;;;;;9.30;4.38;;;14.00;1.00;;;;;;4861840;29;20049;-68
2021/10/11 10:03:47;;;;;;;8.93;4.95;;;14.00;1.00;;;;;;4862173;29;20057;-69
2021/10/11 10:06:13;;;;;;;8.35;5.18;;;14.10;1.00;;;;;;4862284;29;20046;-69
2021/10/11 10:08:41;;;;;;;7.45;5.15;;;14.10;1.00;;;;;;4862414;29;20057;-69
2021/10/11 10:11:07;;;;;;;5.25;4.75;;;14.10;1.00;;;;;;4862217;29;20049;-69
2021/10/11 10:13:46;;;;;;;5.50;4.40;;;14.20;1.00;;;;;;4861988;29;20072;-69
2021/10/11 10:16:13;;;;;;;8.43;4.80;;;14.20;1.00;;;;;;4862166;29;20034;-69
2021/10/11 10:18:42;;;;;;;5.00;4.43;;;14.40;1.00;;;;;;4862224;29;20144;-69
2021/10/11 10:21:08;;;;;;;4.68;4.15;;;14.40;1.00;;;;;;4862045;29;20050;-69
2021/10/11 10:23:36;;;;;;;7.00;4.05;;;14.50;1.00;;;;;;4861890;29;20140;-69
2021/10/11 10:26:04;;;;;;;6.07;4.28;;;14.70;1.00;;;;;;4845418;29;20442;-70
2021/10/11 10:28:47;;;;;;;4.53;3.50;;;14.60;1.00;;;;;;4862075;29;20064;-71
2021/10/11 10:31:32;;;;;;;7.38;4.78;;;14.70;1.00;;;;;;4845576;29;20510;-69
2021/10/11 10:33:58;;;;;;;5.80;4.47;;;14.70;1.00;;;;;;4841111;29;20049;-69
2021/10/11 10:36:27;;;;;;;4.15;3.75;;;14.80;1.00;;;;;;4844475;29;20038;-69
2021/10/11 10:39:08;;;;;;;4.78;4.30;;;14.80;1.00;;;;;;4846662;29;20045;-69
2021/10/11 10:41:35;;;;;;;6.55;4.72;;;14.80;1.00;;;;;;4847051;29;20094;-69
2021/10/11 10:44:18;;;;;;;5.60;4.35;;;14.80;1.00;;;;;;4847249;29;20050;-69
2021/10/11 10:46:58;;;;;;;6.88;5.35;;;14.70;1.00;;;;;;4847082;29;20046;-69
2021/10/11 10:49:36;;;;;;;5.80;5.07;;;14.60;1.00;;;;;;4846612;29;20438;-69
2021/10/11 10:52:12;;;;;;;6.10;4.50;;;14.60;1.00;;;;;;4847157;29;20041;-69
2021/10/11 10:54:55;;;;;;;5.40;4.70;;;14.70;1.00;;;;;;4847262;29;20033;-69
2021/10/11 10:57:28;;;;;;;8.10;4.68;;;14.80;1.00;;;;;;4846381;29;20053;-69
2021/10/11 11:00:02;;;;;;;4.95;4.43;;;14.80;1.00;;;;;;4847101;29;20049;-71
2021/10/11 11:02:32;;;;;;;4.85;4.45;;;14.80;1.00;;;;;;4846560;29;20061;-69
2021/10/11 11:05:05;;;;;;;6.40;4.97;;;14.90;1.00;;;;;;4846282;29;20045;-69
2021/10/11 11:07:37;;;;;;;6.68;5.45;;;14.90;1.00;;;;;;4846543;29;20092;-69
2021/10/11 11:10:11;;;;;;;6.15;5.55;;;14.90;1.00;;;;;;4845854;29;20066;-69
2021/10/11 11:12:40;;;;;;;5.97;5.32;;;15.00;1.00;;;;;;4845824;29;20098;-69
2021/10/11 11:15:09;;;;;;;10.02;5.68;;;15.00;1.00;;;;;;4846097;29;20068;-69
2021/10/11 11:17:40;;;;;;;7.32;5.07;;;15.00;1.00;;;;;;4845925;29;20120;-69
2021/10/11 11:20:20;;;;;;;6.65;4.65;;;15.00;1.00;;;;;;4845794;29;20050;-69
2021/10/11 11:22:46;;;;;;;6.85;4.72;;;15.10;1.00;;;;;;4846809;29;20092;-69
2021/10/11 11:25:13;;;;;;;6.00;5.32;;;15.20;1.00;;;;;;4846203;29;20042;-69
2021/10/11 11:27:42;;;;;;;6.50;5.15;;;15.20;1.00;;;;;;4846244;29;20129;-69
2021/10/11 11:30:10;;;;;;;5.05;4.55;;;15.10;1.00;;;;;;4845935;29;20042;-69
2021/10/11 11:32:55;;;;;;;5.05;4.47;;;15.20;1.00;;;;;;4845952;29;20046;-71
2021/10/11 11:35:28;;;;;;;8.13;4.15;;;15.30;1.00;;;;;;4845707;29;20098;-71
2021/10/11 11:37:56;;;;;;;5.07;4.05;;;15.40;1.00;;;;;;4846250;29;20125;-71
2021/10/11 11:40:27;;;;;;;5.97;4.45;;;15.50;1.00;;;;;;4846127;29;20057;-71
2021/10/11 11:42:53;;;;;;;7.78;4.68;;;15.50;1.00;;;;;;4845985;29;20067;-71
2021/10/11 11:45:22;;;;;;;5.22;4.35;;;15.50;1.00;;;;;;4845605;29;20128;-69
2021/10/11 11:47:48;;;;;;;4.35;3.95;;;15.50;1.00;;;;;;4844909;29;20049;-69
2021/10/11 11:50:22;;;;;;;10.52;4.57;;;15.50;1.00;;;;;;4845736;29;20054;-69
2021/10/11 11:53:02;;;;;;;4.40;3.85;;;15.40;1.00;;;;;;4845732;29;20525;-69
2021/10/11 11:55:28;;;;;;;3.65;2.97;;;15.50;1.00;;;;;;4846014;29;20132;-69
2021/10/11 11:57:56;;;;;;;6.90;3.70;;;15.50;1.00;;;;;;4845920;29;20045;-69
2021/10/11 12:00:23;;;;;;;4.03;3.58;;;15.60;1.00;;;;;;4845436;29;20069;-69
2021/10/11 12:02:49;;;;;;;6.47;3.08;;;15.60;1.00;;;;;;4845442;29;20144;-69
2021/10/11 12:05:17;;;;;;;4.30;3.67;;;15.60;1.00;;;;;;4845546;29;20046;-69
2021/10/11 12:07:43;;;;;;;3.67;3.28;;;15.60;1.00;;;;;;4845495;29;20073;-69
2021/10/11 12:10:20;;;;;;;3.63;2.72;;;15.60;1.00;;;;;;4845422;29;20038;-69
2021/10/11 12:12:47;;;;;;;4.45;3.20;;;15.70;1.00;;;;;;4845989;29;20046;-71
2021/10/11 12:15:20;;;;;;;6.53;3.95;;;15.70;1.00;;;;;;4845601;29;20046;-71
2021/10/11 12:17:46;;;;;;;4.22;3.83;;;15.60;1.00;;;;;;4845481;29;20050;-71
2021/10/11 12:20:13;;;;;;;4.35;3.65;;;15.60;1.00;;;;;;4845984;29;20057;-69
2021/10/11 12:22:39;;;;;;;5.35;4.63;;;15.70;1.00;;;;;;4845223;29;20612;-69
2021/10/11 12:25:08;;;;;;;5.35;4.85;;;15.70;1.00;;;;;;4845370;29;20034;-69
2021/10/11 12:27:34;;;;;;;8.18;5.18;;;15.80;1.00;;;;;;4845429;29;20046;-69
2021/10/11 12:30:05;;;;;;;5.03;4.53;;;15.80;1.00;;;;;;4845618;29;20045;-69
2021/10/11 12:32:33;;;;;;;7.68;4.22;;;15.80;1.00;;;;;;4844855;29;20407;-69
2021/10/11 12:35:00;;;;;;;5.10;4.03;;;15.80;1.00;;;;;;4844964;29;20486;-69
2021/10/11 12:37:37;;;;;;;5.45;4.45;;;15.80;1.00;;;;;;4845313;29;20046;-69
2021/10/11 12:40:04;;;;;;;5.70;4.38;;;15.80;1.00;;;;;;4845430;29;20050;-69
2021/10/11 12:42:30;;;;;;;4.90;4.30;;;15.80;1.00;;;;;;4845127;29;20041;-69
2021/10/11 12:45:00;;;;;;;4.20;3.47;;;15.90;1.00;;;;;;4844754;29;20555;-69
2021/10/11 12:47:28;;;;;;;5.35;4.57;;;15.90;1.00;;;;;;4844577;29;20045;-69
2021/10/11 12:50:08;;;;;;;5.35;4.70;;;15.90;1.00;;;;;;4845164;29;20136;-69
2021/10/11 12:52:45;;;;;;;5.32;4.22;;;16.00;1.00;;;;;;4845022;29;20045;-69
2021/10/11 12:55:20;;;;;;;6.47;4.95;;;15.90;1.00;;;;;;4844670;29;20050;-69
2021/10/11 12:57:49;;;;;;;6.82;4.80;;;15.80;1.00;;;;;;4845092;29;20474;-71
2021/10/11 13:00:20;;;;;;;6.75;4.38;;;15.90;1.00;;;;;;4844718;29;20133;-71